Time;durP1;ratioP1;P1;durP2;ratioP2;P2;SDS_P1;SDS_P2;PMS_P1;PMS_P2;Temp;Humidity;BMP_temperature;BMP_pressure;BME280_temperature;BME280_humidity;BME280_pressure;Samples;Min_cycle;Max_cycle;Signal;HPM_P1;HPM_P2
2024/01/26 01:27:41;;;;;;;45.15;26.48;;;;;;;;;;10600140;27;20828;-84
2024/01/26 01:32:44;;;;;;;40.47;25.63;;;;;;;;;;10598490;22;20920;-85
2024/01/26 01:37:46;;;;;;;45.47;26.90;;;;;;;;;;10551357;28;20480;-85
2024/01/26 01:42:50;;;;;;;43.38;26.10;;;;;;;;;;10551350;28;20954;-85
2024/01/26 01:47:53;;;;;;;48.43;26.37;;;;;;;;;;10557768;28;20864;-85
2024/01/26 01:52:57;;;;;;;44.45;26.08;;;;;;;;;;10555921;28;20478;-85
2024/01/26 01:58:01;;;;;;;44.33;26.08;;;;;;;;;;10550893;28;20431;-84
2024/01/26 02:03:03;;;;;;;48.88;28.00;;;;;;;;;;10557115;28;20469;-85
2024/01/26 02:08:06;;;;;;;46.60;26.55;;;;;;;;;;10565483;28;20950;-84
2024/01/26 02:13:10;;;;;;;44.13;26.02;;;;;;;;;;10573146;28;20429;-85
2024/01/26 02:18:13;;;;;;;46.20;26.30;;;;;;;;;;10557862;28;20755;-84
2024/01/26 02:23:22;;;;;;;41.17;24.75;;;;;;;;;;10558034;28;20437;-84
2024/01/26 02:28:25;;;;;;;42.28;25.17;;;;;;;;;;10554385;28;20436;-85
2024/01/26 02:33:27;;;;;;;40.83;25.52;;;;;;;;;;10556828;28;20441;-85
2024/01/26 02:38:31;;;;;;;43.97;26.85;;;;;;;;;;10557451;28;20444;-85
2024/01/26 02:43:33;;;;;;;41.65;25.40;;;;;;;;;;10554509;28;20519;-85
2024/01/26 02:48:36;;;;;;;42.97;25.00;;;;;;;;;;10555806;28;20558;-82
2024/01/26 02:53:40;;;;;;;43.58;25.55;;;;;;;;;;10552782;28;20527;-85
2024/01/26 02:58:43;;;;;;;42.63;24.03;;;;;;;;;;10557270;28;20419;-85
2024/01/26 03:03:45;;;;;;;43.72;24.23;;;;;;;;;;10552338;28;20900;-84
2024/01/26 03:08:49;;;;;;;38.78;23.58;;;;;;;;;;10556386;28;20448;-85
2024/01/26 03:13:51;;;;;;;42.35;24.10;;;;;;;;;;10553809;28;20410;-84
2024/01/26 03:18:53;;;;;;;39.70;23.50;;;;;;;;;;10562310;28;20454;-85
2024/01/26 03:23:57;;;;;;;39.38;22.80;;;;;;;;;;10563413;28;20407;-84
2024/01/26 03:29:01;;;;;;;39.50;22.47;;;;;;;;;;10560582;28;20410;-84
2024/01/26 03:34:04;;;;;;;33.38;21.00;;;;;;;;;;10556274;28;20539;-84
2024/01/26 03:39:09;;;;;;;36.97;21.88;;;;;;;;;;10558840;28;20398;-84
2024/01/26 03:44:12;;;;;;;37.08;21.45;;;;;;;;;;10561422;28;20450;-85
2024/01/26 03:49:14;;;;;;;38.07;21.63;;;;;;;;;;10558473;28;20392;-83
2024/01/26 03:54:18;;;;;;;39.30;21.67;;;;;;;;;;10555965;28;20403;-82
2024/01/26 03:59:21;;;;;;;37.60;20.70;;;;;;;;;;10566204;28;20480;-82
2024/01/26 04:04:23;;;;;;;34.45;21.58;;;;;;;;;;10571333;28;20972;-83
2024/01/26 04:09:27;;;;;;;36.63;20.73;;;;;;;;;;10560274;28;20425;-84
2024/01/26 04:14:29;;;;;;;34.10;20.83;;;;;;;;;;10560033;28;20498;-84
2024/01/26 04:19:32;;;;;;;34.97;21.27;;;;;;;;;;10559178;28;20395;-85
2024/01/26 04:24:36;;;;;;;33.30;19.90;;;;;;;;;;10558144;28;20454;-85
2024/01/26 04:29:39;;;;;;;36.30;20.90;;;;;;;;;;10549849;28;20417;-85
2024/01/26 04:34:41;;;;;;;36.13;20.13;;;;;;;;;;10560080;28;20401;-85
2024/01/26 04:39:45;;;;;;;31.42;18.42;;;;;;;;;;10560227;28;20962;-85
2024/01/26 04:44:47;;;;;;;31.33;19.13;;;;;;;;;;10556532;28;20512;-85
2024/01/26 04:49:50;;;;;;;29.83;17.05;;;;;;;;;;10561920;28;20394;-84
2024/01/26 04:54:53;;;;;;;31.00;17.98;;;;;;;;;;10562208;28;20395;-84
2024/01/26 04:59:56;;;;;;;30.77;17.90;;;;;;;;;;10533288;28;20406;-84
2024/01/26 05:04:58;;;;;;;32.17;18.17;;;;;;;;;;10557541;28;20499;-84
2024/01/26 05:10:02;;;;;;;32.03;18.42;;;;;;;;;;10561280;28;20823;-84
2024/01/26 05:15:05;;;;;;;32.72;17.77;;;;;;;;;;10553963;28;20882;-85
2024/01/26 05:20:10;;;;;;;31.58;18.35;;;;;;;;;;10558506;28;20467;-84
2024/01/26 05:25:13;;;;;;;32.35;19.63;;;;;;;;;;10544956;28;20505;-84
2024/01/26 05:30:16;;;;;;;29.70;17.95;;;;;;;;;;10552313;28;20412;-85
2024/01/26 05:35:18;;;;;;;30.52;18.05;;;;;;;;;;10556802;28;20472;-85
2024/01/26 05:40:22;;;;;;;30.30;17.55;;;;;;;;;;10559586;28;20406;-85
2024/01/26 05:45:25;;;;;;;32.33;18.63;;;;;;;;;;10555741;28;20448;-84
2024/01/26 05:50:27;;;;;;;33.03;17.93;;;;;;;;;;10562466;28;20469;-85
2024/01/26 05:55:31;;;;;;;30.80;17.75;;;;;;;;;;10576338;28;20416;-85
2024/01/26 06:00:33;;;;;;;28.90;16.92;;;;;;;;;;10548535;28;20416;-84
2024/01/26 06:05:36;;;;;;;31.23;17.48;;;;;;;;;;10554055;28;20507;-84
2024/01/26 06:10:40;;;;;;;33.77;19.90;;;;;;;;;;10554640;28;20465;-85
2024/01/26 06:15:42;;;;;;;35.00;19.10;;;;;;;;;;10550046;28;21107;-84
2024/01/26 06:20:45;;;;;;;33.08;19.63;;;;;;;;;;10548411;28;20474;-85
2024/01/26 06:25:48;;;;;;;30.63;18.33;;;;;;;;;;10550000;28;20489;-84
2024/01/26 06:30:51;;;;;;;31.33;18.87;;;;;;;;;;10555452;28;20406;-85
2024/01/26 06:35:53;;;;;;;34.25;20.52;;;;;;;;;;10545400;28;20411;-83
2024/01/26 06:40:59;;;;;;;34.88;20.30;;;;;;;;;;10554289;28;20870;-83
2024/01/26 06:46:01;;;;;;;35.20;22.73;;;;;;;;;;10557907;28;20412;-85
2024/01/26 06:51:05;;;;;;;43.13;24.67;;;;;;;;;;10542220;28;20896;-84
2024/01/26 06:56:09;;;;;;;46.75;27.05;;;;;;;;;;10550292;28;20438;-84
2024/01/26 07:01:11;;;;;;;47.13;25.25;;;;;;;;;;10519899;28;20493;-84
2024/01/26 07:06:14;;;;;;;37.72;22.20;;;;;;;;;;10556545;28;20845;-84
2024/01/26 07:11:19;;;;;;;39.67;23.45;;;;;;;;;;10557710;28;20422;-83
2024/01/26 07:16:21;;;;;;;36.77;22.03;;;;;;;;;;10555920;28;20525;-83
2024/01/26 07:21:23;;;;;;;34.05;20.83;;;;;;;;;;10557874;28;20491;-81
2024/01/26 07:26:27;;;;;;;34.67;21.17;;;;;;;;;;10557450;28;20825;-81
2024/01/26 07:31:30;;;;;;;34.42;22.00;;;;;;;;;;10556630;28;20475;-82
2024/01/26 07:36:36;;;;;;;37.08;21.88;;;;;;;;;;10566312;28;20942;-83
2024/01/26 07:41:40;;;;;;;40.67;23.02;;;;;;;;;;10565963;28;20464;-81
2024/01/26 07:46:42;;;;;;;37.20;21.52;;;;;;;;;;10568250;28;20436;-82
2024/01/26 07:51:45;;;;;;;36.60;22.43;;;;;;;;;;10559281;28;20788;-84
2024/01/26 07:56:48;;;;;;;36.78;22.42;;;;;;;;;;10555419;28;20467;-84
2024/01/26 08:01:51;;;;;;;37.37;22.60;;;;;;;;;;10556686;28;20391;-85
2024/01/26 08:06:53;;;;;;;36.35;21.33;;;;;;;;;;10562145;28;20456;-84
2024/01/26 08:11:57;;;;;;;38.97;21.93;;;;;;;;;;10556664;28;20568;-83
2024/01/26 08:16:59;;;;;;;35.80;20.43;;;;;;;;;;10553908;28;20766;-86
2024/01/26 08:22:03;;;;;;;38.75;22.15;;;;;;;;;;10561741;28;20467;-85
2024/01/26 08:27:07;;;;;;;38.15;23.48;;;;;;;;;;10545912;28;20955;-84
2024/01/26 08:32:10;;;;;;;41.65;25.40;;;;;;;;;;10551534;28;20468;-85
2024/01/26 08:37:12;;;;;;;41.33;24.77;;;;;;;;;;10568629;27;20460;-85
2024/01/26 08:42:16;;;;;;;40.47;23.50;;;;;;;;;;10551507;28;20508;-84
2024/01/26 08:47:18;;;;;;;38.85;22.85;;;;;;;;;;10548059;28;20539;-81
2024/01/26 08:52:21;;;;;;;33.80;19.80;;;;;;;;;;10556930;28;20507;-81
2024/01/26 08:57:25;;;;;;;31.63;17.50;;;;;;;;;;10547042;28;20402;-81
2024/01/26 09:02:28;;;;;;;32.83;19.98;;;;;;;;;;10546093;28;20490;-81
2024/01/26 09:07:30;;;;;;;35.00;20.23;;;;;;;;;;10548885;28;20433;-81
2024/01/26 09:12:35;;;;;;;34.53;19.60;;;;;;;;;;10539575;28;20835;-81
2024/01/26 09:17:38;;;;;;;34.23;19.00;;;;;;;;;;10534209;28;20462;-81
2024/01/26 09:22:40;;;;;;;31.17;17.98;;;;;;;;;;10548054;28;20472;-82
2024/01/26 09:27:45;;;;;;;38.00;21.80;;;;;;;;;;10542630;28;20419;-82
2024/01/26 09:32:47;;;;;;;36.27;22.23;;;;;;;;;;10531158;28;20408;-82
2024/01/26 09:37:50;;;;;;;34.58;20.02;;;;;;;;;;10510307;28;20472;-81
2024/01/26 09:42:54;;;;;;;34.75;21.27;;;;;;;;;;10515801;28;20426;-82
2024/01/26 09:47:57;;;;;;;37.47;21.80;;;;;;;;;;10512977;28;20478;-82
2024/01/26 09:53:00;;;;;;;45.50;25.07;;;;;;;;;;10501386;28;20524;-82
2024/01/26 09:58:04;;;;;;;48.78;25.92;;;;;;;;;;10503573;28;20414;-81
2024/01/26 10:03:06;;;;;;;46.40;26.13;;;;;;;;;;10509510;28;20509;-82
2024/01/26 10:08:09;;;;;;;44.67;25.73;;;;;;;;;;10504087;28;20444;-81
2024/01/26 10:13:14;;;;;;;44.40;24.45;;;;;;;;;;10504521;28;20408;-81
2024/01/26 10:18:16;;;;;;;46.03;25.38;;;;;;;;;;10513938;28;20394;-82
2024/01/26 10:23:19;;;;;;;47.00;25.03;;;;;;;;;;10506943;28;20461;-81
2024/01/26 10:28:23;;;;;;;48.05;26.20;;;;;;;;;;10510693;28;20499;-82
2024/01/26 10:33:25;;;;;;;49.20;27.77;;;;;;;;;;10558046;27;20402;-82
2024/01/26 10:38:30;;;;;;;48.67;27.00;;;;;;;;;;10602278;27;20547;-82
2024/01/26 10:43:34;;;;;;;47.47;25.02;;;;;;;;;;10591091;27;20418;-82
2024/01/26 10:48:36;;;;;;;46.08;24.98;;;;;;;;;;10597693;27;20424;-82
2024/01/26 10:53:41;;;;;;;46.08;25.98;;;;;;;;;;10596643;27;20405;-82
2024/01/26 10:58:44;;;;;;;42.63;25.70;;;;;;;;;;10593409;27;20423;-83
2024/01/26 11:03:47;;;;;;;41.45;25.02;;;;;;;;;;10590642;27;20402;-83
2024/01/26 11:08:50;;;;;;;38.67;23.98;;;;;;;;;;10589998;27;20475;-84
2024/01/26 11:13:55;;;;;;;34.03;19.27;;;;;;;;;;10595696;27;20396;-83
2024/01/26 11:18:58;;;;;;;34.83;20.58;;;;;;;;;;10599753;27;20876;-82
2024/01/26 11:24:12;;;;;;;32.50;20.27;;;;;;;;;;10601956;27;20422;-84
2024/01/26 11:29:16;;;;;;;34.40;20.98;;;;;;;;;;10593677;27;20436;-84
2024/01/26 11:34:19;;;;;;;41.40;23.87;;;;;;;;;;10621172;27;20990;-83
2024/01/26 11:39:22;;;;;;;45.60;25.33;;;;;;;;;;10591592;27;20402;-84
2024/01/26 11:44:30;;;;;;;39.13;24.50;;;;;;;;;;10592512;27;20519;-84
2024/01/26 11:49:32;;;;;;;46.53;26.23;;;;;;;;;;10588511;27;20489;-84
2024/01/26 11:54:36;;;;;;;45.25;24.90;;;;;;;;;;10596447;27;20458;-84
2024/01/26 11:59:40;;;;;;;40.95;23.67;;;;;;;;;;10595404;27;20442;-84
2024/01/26 12:04:43;;;;;;;38.13;22.83;;;;;;;;;;10586534;27;20450;-83
2024/01/26 12:09:45;;;;;;;34.77;20.63;;;;;;;;;;10584611;27;20914;-83
2024/01/26 12:14:49;;;;;;;33.47;19.67;;;;;;;;;;10577427;27;20448;-83
2024/01/26 12:19:52;;;;;;;36.30;20.95;;;;;;;;;;10588135;27;20402;-83
2024/01/26 12:24:56;;;;;;;33.58;19.75;;;;;;;;;;10582649;27;21196;-83
2024/01/26 12:29:59;;;;;;;34.20;19.90;;;;;;;;;;10577010;27;20450;-83
2024/01/26 12:35:03;;;;;;;32.08;19.85;;;;;;;;;;10578822;27;20500;-84
2024/01/26 12:40:06;;;;;;;31.10;19.42;;;;;;;;;;10578418;27;20438;-84
2024/01/26 12:45:10;;;;;;;30.77;19.03;;;;;;;;;;10571422;27;20515;-83
2024/01/26 12:50:14;;;;;;;32.17;19.33;;;;;;;;;;10572955;27;20412;-83
2024/01/26 12:55:17;;;;;;;30.70;19.90;;;;;;;;;;10556924;27;20529;-83
2024/01/26 13:00:22;;;;;;;34.03;20.55;;;;;;;;;;10560974;27;20884;-82
2024/01/26 13:05:24;;;;;;;31.77;20.07;;;;;;;;;;10568137;27;20458;-83
2024/01/26 13:10:28;;;;;;;34.75;20.92;;;;;;;;;;10579766;27;20876;-84
2024/01/26 13:15:32;;;;;;;32.72;20.30;;;;;;;;;;10581301;27;21022;-82
2024/01/26 13:20:35;;;;;;;38.67;22.15;;;;;;;;;;10604800;27;20460;-83
2024/01/26 13:25:39;;;;;;;38.88;21.45;;;;;;;;;;10581193;27;20462;-83
2024/01/26 13:30:42;;;;;;;34.97;20.50;;;;;;;;;;10566960;27;21157;-83
2024/01/26 13:35:46;;;;;;;33.90;20.83;;;;;;;;;;10580184;27;20395;-83
2024/01/26 13:40:50;;;;;;;36.97;21.52;;;;;;;;;;10580845;27;20430;-83
2024/01/26 13:45:54;;;;;;;36.10;21.83;;;;;;;;;;10575659;27;20447;-83
2024/01/26 13:50:59;;;;;;;39.67;23.35;;;;;;;;;;10584276;27;20519;-83
2024/01/26 13:56:01;;;;;;;42.47;23.43;;;;;;;;;;10578035;27;20405;-83
2024/01/26 14:01:07;;;;;;;42.25;24.88;;;;;;;;;;10572212;27;20961;-82
2024/01/26 14:06:12;;;;;;;46.05;26.35;;;;;;;;;;10561414;27;20545;-83
2024/01/26 14:11:15;;;;;;;45.03;26.83;;;;;;;;;;10571477;27;20500;-82
2024/01/26 14:16:20;;;;;;;48.28;27.50;;;;;;;;;;10574329;27;20440;-83
2024/01/26 14:21:23;;;;;;;50.92;27.90;;;;;;;;;;10566957;27;20438;-83
2024/01/26 14:26:30;;;;;;;45.67;27.77;;;;;;;;;;10564834;27;20456;-83
2024/01/26 14:31:35;;;;;;;47.33;28.80;;;;;;;;;;10577437;28;21261;-83
2024/01/26 14:36:38;;;;;;;48.08;27.65;;;;;;;;;;10587133;28;20435;-83
2024/01/26 14:41:41;;;;;;;47.27;29.03;;;;;;;;;;10589001;28;20398;-84
2024/01/26 14:46:45;;;;;;;46.25;27.70;;;;;;;;;;10591769;28;20454;-82
2024/01/26 14:51:47;;;;;;;46.90;27.27;;;;;;;;;;10576632;28;20433;-83
2024/01/26 14:56:51;;;;;;;46.93;28.13;;;;;;;;;;10573927;28;20515;-83
2024/01/26 15:01:55;;;;;;;53.63;29.58;;;;;;;;;;10573951;28;20475;-84
2024/01/26 15:06:58;;;;;;;50.92;29.27;;;;;;;;;;10559250;28;20456;-83
2024/01/26 15:12:00;;;;;;;55.80;33.55;;;;;;;;;;10576716;27;20448;-84
2024/01/26 15:17:04;;;;;;;57.42;32.65;;;;;;;;;;10580782;27;20491;-84
2024/01/26 15:22:07;;;;;;;62.05;36.55;;;;;;;;;;10574826;27;20494;-84
2024/01/26 15:27:10;;;;;;;62.53;36.70;;;;;;;;;;10571784;27;20446;-84
2024/01/26 15:32:14;;;;;;;66.07;37.28;;;;;;;;;;10575249;27;20513;-83
2024/01/26 15:37:16;;;;;;;72.70;40.90;;;;;;;;;;10573992;27;20935;-83
2024/01/26 15:42:19;;;;;;;71.97;40.67;;;;;;;;;;10568591;27;20513;-84
2024/01/26 15:47:23;;;;;;;68.97;37.70;;;;;;;;;;10573443;27;20449;-84
2024/01/26 15:52:28;;;;;;;71.47;39.40;;;;;;;;;;10567876;27;20435;-85
2024/01/26 15:57:31;;;;;;;73.28;41.38;;;;;;;;;;10570849;27;21180;-84
2024/01/26 16:02:34;;;;;;;78.55;41.95;;;;;;;;;;10575154;27;20793;-84
2024/01/26 16:07:37;;;;;;;74.27;40.50;;;;;;;;;;10570643;27;20509;-84
2024/01/26 16:12:39;;;;;;;70.20;40.40;;;;;;;;;;10561053;27;20440;-84
2024/01/26 16:17:43;;;;;;;72.47;38.75;;;;;;;;;;10572926;27;20429;-83
2024/01/26 16:22:46;;;;;;;74.87;40.60;;;;;;;;;;10568202;27;20458;-85
2024/01/26 16:27:48;;;;;;;81.07;44.03;;;;;;;;;;10566545;27;20448;-83
2024/01/26 16:32:52;;;;;;;81.32;43.50;;;;;;;;;;10571743;27;21046;-82
2024/01/26 16:37:54;;;;;;;81.37;45.73;;;;;;;;;;10568657;27;20424;-83
2024/01/26 16:42:57;;;;;;;90.77;50.03;;;;;;;;;;10556044;27;20447;-83
2024/01/26 16:48:00;;;;;;;81.82;44.95;;;;;;;;;;10575685;27;20920;-83
2024/01/26 16:53:03;;;;;;;84.20;45.83;;;;;;;;;;10582862;27;21107;-83
2024/01/26 16:58:05;;;;;;;88.30;47.10;;;;;;;;;;10572052;27;20904;-84
2024/01/26 17:03:09;;;;;;;84.68;46.75;;;;;;;;;;10565574;27;20486;-83
2024/01/26 17:08:11;;;;;;;92.63;46.67;;;;;;;;;;10580730;27;20430;-84
2024/01/26 17:13:14;;;;;;;95.33;49.97;;;;;;;;;;10569940;27;20501;-84
2024/01/26 17:18:17;;;;;;;95.00;49.73;;;;;;;;;;10580762;27;20438;-83
2024/01/26 17:23:21;;;;;;;96.95;50.28;;;;;;;;;;10572815;27;20509;-83
2024/01/26 17:28:23;;;;;;;93.68;49.15;;;;;;;;;;10584470;27;20898;-82
2024/01/26 17:33:27;;;;;;;93.57;50.85;;;;;;;;;;10587028;27;20410;-83
2024/01/26 17:38:30;;;;;;;95.13;50.22;;;;;;;;;;10584682;27;20908;-83
2024/01/26 17:43:32;;;;;;;94.85;50.50;;;;;;;;;;10560495;27;20515;-83
2024/01/26 17:48:36;;;;;;;94.80;48.50;;;;;;;;;;10581021;27;20440;-82
2024/01/26 17:53:38;;;;;;;97.00;51.27;;;;;;;;;;10571399;27;20948;-83
2024/01/26 17:58:41;;;;;;;101.72;52.28;;;;;;;;;;10584627;27;20446;-84
2024/01/26 18:03:45;;;;;;;106.77;55.90;;;;;;;;;;10578564;27;20429;-84
2024/01/26 18:08:47;;;;;;;111.25;59.22;;;;;;;;;;10576127;27;21307;-81
2024/01/26 18:13:50;;;;;;;111.90;57.83;;;;;;;;;;10587883;27;20472;-84
2024/01/26 18:18:53;;;;;;;121.25;59.58;;;;;;;;;;10576945;27;20511;-84
2024/01/26 18:23:56;;;;;;;115.13;60.97;;;;;;;;;;10571439;27;20435;-85
2024/01/26 18:29:00;;;;;;;115.47;60.90;;;;;;;;;;10582522;28;20440;-82
2024/01/26 18:34:04;;;;;;;122.75;61.47;;;;;;;;;;10571132;28;20448;-84
2024/01/26 18:39:06;;;;;;;122.65;60.80;;;;;;;;;;10561995;28;20438;-85
2024/01/26 18:44:09;;;;;;;116.97;60.50;;;;;;;;;;10575857;28;20918;-84
2024/01/26 18:49:12;;;;;;;114.87;59.13;;;;;;;;;;10581272;27;20486;-83
2024/01/26 18:54:15;;;;;;;119.07;59.17;;;;;;;;;;10576793;27;20424;-84
2024/01/26 18:59:18;;;;;;;112.83;58.50;;;;;;;;;;10571297;27;20586;-84
2024/01/26 19:04:22;;;;;;;114.60;59.85;;;;;;;;;;10576214;27;20503;-85
2024/01/26 19:09:24;;;;;;;116.63;59.00;;;;;;;;;;10561835;27;20455;-84
2024/01/26 19:14:27;;;;;;;118.32;58.50;;;;;;;;;;10559586;27;20476;-86
2024/01/26 19:19:32;;;;;;;116.68;59.42;;;;;;;;;;10574379;27;20443;-86
2024/01/26 19:24:34;;;;;;;110.72;58.70;;;;;;;;;;10570365;27;20434;-85
2024/01/26 19:29:39;;;;;;;120.85;60.75;;;;;;;;;;10588467;27;20495;-84
2024/01/26 19:34:43;;;;;;;116.85;59.45;;;;;;;;;;10585967;27;20468;-85
2024/01/26 19:39:45;;;;;;;120.50;60.38;;;;;;;;;;10583584;27;20465;-85
2024/01/26 19:44:48;;;;;;;116.00;61.25;;;;;;;;;;10584622;27;20444;-84
2024/01/26 19:49:52;;;;;;;121.23;63.30;;;;;;;;;;10583031;27;20457;-84
2024/01/26 19:54:55;;;;;;;129.90;64.40;;;;;;;;;;10576566;27;20399;-84
2024/01/26 19:59:57;;;;;;;123.55;62.53;;;;;;;;;;10578057;27;20418;-85
2024/01/26 20:05:01;;;;;;;122.10;62.70;;;;;;;;;;10578637;27;20411;-85
2024/01/26 20:10:05;;;;;;;124.38;63.08;;;;;;;;;;10569227;27;20522;-86
2024/01/26 20:15:09;;;;;;;119.30;62.88;;;;;;;;;;10581222;27;21010;-84
2024/01/26 20:20:13;;;;;;;121.38;64.55;;;;;;;;;;10582360;27;20475;-86
2024/01/26 20:25:16;;;;;;;118.90;62.17;;;;;;;;;;10595662;27;20495;-87
2024/01/26 20:30:22;;;;;;;113.22;59.58;;;;;;;;;;10575139;27;20471;-88
2024/01/26 20:35:26;;;;;;;104.13;57.67;;;;;;;;;;10577588;27;20823;-86
2024/01/26 20:40:29;;;;;;;107.43;57.25;;;;;;;;;;10586474;27;20494;-85
2024/01/26 20:45:39;;;;;;;106.30;56.50;;;;;;;;;;10580049;27;20453;-85
2024/01/26 20:50:43;;;;;;;110.80;57.23;;;;;;;;;;10574637;27;25119;-86
2024/01/26 20:55:45;;;;;;;115.30;57.80;;;;;;;;;;10575733;27;20542;-87
2024/01/26 21:00:48;;;;;;;105.05;56.47;;;;;;;;;;10572508;27;20536;-87
2024/01/26 21:05:52;;;;;;;108.27;58.10;;;;;;;;;;10573311;27;20426;-87
2024/01/26 21:47:17;;;;;;;110.28;58.60;;;;;;;;;;10541100;27;25118;-86
2024/01/26 21:52:19;;;;;;;108.22;57.38;;;;;;;;;;10579068;27;20996;-86
2024/01/26 21:57:21;;;;;;;103.68;57.08;;;;;;;;;;10597120;27;20409;-86
2024/01/26 22:02:25;;;;;;;112.37;60.90;;;;;;;;;;10600644;27;20414;-86
2024/01/26 22:07:28;;;;;;;111.67;61.03;;;;;;;;;;10597125;27;20444;-86
2024/01/26 22:12:30;;;;;;;106.65;57.58;;;;;;;;;;10601270;27;20401;-86
2024/01/26 22:17:34;;;;;;;100.40;54.90;;;;;;;;;;10595675;27;20467;-86
2024/01/26 22:22:37;;;;;;;101.13;55.23;;;;;;;;;;10603908;27;20904;-86
2024/01/26 22:27:39;;;;;;;97.55;54.88;;;;;;;;;;10597239;27;20453;-86
2024/01/26 22:32:43;;;;;;;103.22;55.38;;;;;;;;;;10593090;28;20433;-87
2024/01/26 22:37:46;;;;;;;97.40;54.55;;;;;;;;;;10587125;27;20537;-84
2024/01/26 22:42:48;;;;;;;99.60;55.15;;;;;;;;;;10591111;28;20402;-84
2024/01/26 22:47:52;;;;;;;96.45;54.10;;;;;;;;;;10589551;28;20467;-84
2024/01/26 22:52:54;;;;;;;96.40;53.35;;;;;;;;;;10587700;28;20417;-84
2024/01/26 22:57:57;;;;;;;94.65;52.97;;;;;;;;;;10591396;28;20459;-84
2024/01/26 23:03:01;;;;;;;104.30;55.70;;;;;;;;;;10589826;28;20476;-84
2024/01/26 23:08:04;;;;;;;98.85;55.08;;;;;;;;;;10588060;28;20420;-84
2024/01/26 23:13:07;;;;;;;93.20;52.63;;;;;;;;;;10606094;28;20864;-84
2024/01/26 23:18:10;;;;;;;100.03;54.42;;;;;;;;;;10600104;28;20476;-84
2024/01/26 23:23:13;;;;;;;96.70;52.58;;;;;;;;;;10589390;28;20405;-85
2024/01/26 23:28:15;;;;;;;92.83;50.83;;;;;;;;;;10591391;28;20437;-83
2024/01/26 23:33:20;;;;;;;91.20;51.15;;;;;;;;;;10594362;27;20391;-84
2024/01/26 23:38:22;;;;;;;97.03;53.40;;;;;;;;;;10598739;27;20471;-84
2024/01/26 23:43:25;;;;;;;91.78;52.63;;;;;;;;;;10595032;27;20406;-84
2024/01/26 23:48:28;;;;;;;95.80;51.73;;;;;;;;;;10596491;27;20487;-84
2024/01/26 23:53:31;;;;;;;92.70;48.50;;;;;;;;;;10598344;27;20481;-84
2024/01/26 23:58:33;;;;;;;92.20;50.43;;;;;;;;;;10596356;27;21288;-85
